createdAt,value
2022-12-12T00:00:50.722Z,3.90
2022-12-12T00:01:57.517Z,3.90
2022-12-12T00:03:02.106Z,3.84
2022-12-12T00:04:07.244Z,3.84
2022-12-12T00:05:14.650Z,3.83
2022-12-12T00:06:19.943Z,3.84
2022-12-12T00:07:23.991Z,3.79
2022-12-12T00:08:28.009Z,3.79
2022-12-12T00:09:33.648Z,3.80
2022-12-12T00:10:37.889Z,3.80
2022-12-12T00:11:41.833Z,3.81
2022-12-12T00:12:45.839Z,3.82
2022-12-12T00:13:49.890Z,3.80
2022-12-12T00:14:53.860Z,3.82
2022-12-12T00:15:57.774Z,3.80
2022-12-12T00:17:01.985Z,3.80
2022-12-12T00:18:06.160Z,3.82
2022-12-12T00:19:13.034Z,3.82
2022-12-12T00:20:17.207Z,3.81
2022-12-12T00:21:29.350Z,3.82
2022-12-12T00:22:34.683Z,3.83
2022-12-12T00:23:38.875Z,3.84
2022-12-12T00:24:42.900Z,3.84
2022-12-12T00:25:48.430Z,3.82
2022-12-12T00:26:52.799Z,3.78
2022-12-12T00:27:56.952Z,3.80
2022-12-12T00:29:03.982Z,3.80
2022-12-12T00:30:08.844Z,3.80
2022-12-12T00:31:13.009Z,3.79
2022-12-12T00:32:17.133Z,3.77
2022-12-12T00:33:21.253Z,3.77
2022-12-12T00:34:25.410Z,3.79
2022-12-12T00:35:29.485Z,3.76
2022-12-12T00:36:33.879Z,3.77
2022-12-12T00:37:39.567Z,3.76
2022-12-12T00:38:43.772Z,3.79
2022-12-12T00:39:47.954Z,3.80
2022-12-12T00:41:00.353Z,3.76
2022-12-12T00:42:04.527Z,3.79
2022-12-12T00:43:10.112Z,3.77
2022-12-12T00:44:14.176Z,3.75
2022-12-12T00:45:18.471Z,3.75
2022-12-12T00:46:25.483Z,3.78
2022-12-12T00:47:29.605Z,3.78
2022-12-12T00:48:33.687Z,3.75
2022-12-12T00:49:37.761Z,3.75
2022-12-12T00:50:41.929Z,3.76
2022-12-12T00:51:46.015Z,3.75
2022-12-12T00:52:54.051Z,3.75
2022-12-12T00:53:59.291Z,3.74
2022-12-12T00:55:07.958Z,3.73
2022-12-12T00:56:12.441Z,3.73
2022-12-12T00:57:16.530Z,3.73
2022-12-12T00:58:20.680Z,3.73
2022-12-12T00:59:25.122Z,3.72
2022-12-12T01:00:29.696Z,3.70
2022-12-12T01:01:35.376Z,3.72
2022-12-12T01:02:39.521Z,3.72
2022-12-12T01:03:44.303Z,3.71
2022-12-12T01:04:48.243Z,3.67
2022-12-12T01:05:53.468Z,3.67
2022-12-12T01:06:57.715Z,3.64
2022-12-12T01:08:03.808Z,3.65
2022-12-12T01:09:09.825Z,3.64
2022-12-12T01:10:14.912Z,3.62
2022-12-12T01:11:19.174Z,3.63
2022-12-12T01:12:23.263Z,3.63
2022-12-12T01:13:28.697Z,3.62
2022-12-12T01:14:35.598Z,3.60
2022-12-12T01:15:39.688Z,3.60
2022-12-12T01:16:46.857Z,3.61
2022-12-12T01:17:51.084Z,3.60
2022-12-12T01:18:55.219Z,3.58
2022-12-12T01:20:01.029Z,3.59
2022-12-12T01:21:18.689Z,3.60
2022-12-12T01:22:28.223Z,3.60
2022-12-12T01:23:31.539Z,3.58
2022-12-12T01:24:35.780Z,3.58
2022-12-12T01:25:39.972Z,3.59
2022-12-12T01:26:47.140Z,3.58
2022-12-12T01:27:51.681Z,3.55
2022-12-12T01:28:55.647Z,3.53
2022-12-12T01:30:07.293Z,3.51
2022-12-12T01:31:13.023Z,3.52
2022-12-12T01:32:17.170Z,3.51
2022-12-12T01:33:21.325Z,3.52
2022-12-12T01:34:25.434Z,3.51
2022-12-12T01:35:30.663Z,3.48
2022-12-12T01:36:34.774Z,3.48
2022-12-12T01:37:46.460Z,3.45
2022-12-12T01:38:55.073Z,3.45
2022-12-12T01:39:59.249Z,3.45
2022-12-12T01:41:03.128Z,3.45
2022-12-12T01:42:12.915Z,3.42
2022-12-12T01:43:20.025Z,3.42
2022-12-12T01:44:46.292Z,3.39
2022-12-12T01:46:04.428Z,3.35
2022-12-12T01:47:08.190Z,3.33
2022-12-12T01:48:12.274Z,3.32
2022-12-12T01:49:24.953Z,3.30
2022-12-12T01:50:29.186Z,3.27
2022-12-12T01:51:34.082Z,3.28
2022-12-12T01:52:41.073Z,3.28
2022-12-12T01:53:46.424Z,3.24
2022-12-12T01:54:53.439Z,3.23
2022-12-12T01:55:59.080Z,3.21
2022-12-12T01:57:11.858Z,3.21
2022-12-12T01:58:17.818Z,3.15
2022-12-12T01:59:25.026Z,3.16
2022-12-12T02:00:29.170Z,3.14
2022-12-12T02:01:33.758Z,3.15
2022-12-12T02:02:40.366Z,3.13
2022-12-12T02:03:47.227Z,3.15
2022-12-12T02:04:53.041Z,3.15
2022-12-12T02:06:00.611Z,3.10
2022-12-12T02:07:05.409Z,3.09
2022-12-12T02:08:11.105Z,3.09
2022-12-12T02:09:18.098Z,3.02
2022-12-12T02:10:22.390Z,2.98
2022-12-12T02:11:31.471Z,2.98
2022-12-12T02:12:35.552Z,2.99
2022-12-12T02:13:39.990Z,2.99
2022-12-12T02:14:49.574Z,2.97
2022-12-12T02:16:17.826Z,2.97
2022-12-12T02:17:37.682Z,2.99
2022-12-12T02:19:01.203Z,2.99
2022-12-12T02:20:16.764Z,3.01
2022-12-12T02:21:38.715Z,3.01
2022-12-12T02:23:20.098Z,2.94
2022-12-12T02:24:41.810Z,2.92
2022-12-12T02:26:09.610Z,2.86
2022-12-12T02:27:42.138Z,2.86
2022-12-12T02:28:57.714Z,2.87
2022-12-12T02:30:13.040Z,2.87
2022-12-12T02:31:28.783Z,2.82
2022-12-12T02:32:50.781Z,2.84
2022-12-12T02:33:57.886Z,2.84
2022-12-12T02:35:23.091Z,2.80
2022-12-12T02:36:38.590Z,2.83
2022-12-12T02:38:02.061Z,2.84
2022-12-12T02:39:20.784Z,2.79
2022-12-12T02:40:33.528Z,2.75
2022-12-12T02:41:42.783Z,2.75
2022-12-12T02:43:01.647Z,2.77
2022-12-12T02:44:29.805Z,2.75
2022-12-12T02:45:51.334Z,2.72
2022-12-12T02:47:10.352Z,2.71
2022-12-12T02:48:44.271Z,2.71
2022-12-12T02:49:53.686Z,2.72
2022-12-12T02:51:01.016Z,2.70
2022-12-12T02:52:06.460Z,2.68
2022-12-12T02:53:10.918Z,2.68
2022-12-12T02:54:20.826Z,2.68
2022-12-12T02:55:26.643Z,2.68
2022-12-12T02:56:53.153Z,2.67
2022-12-12T02:57:57.141Z,2.69
2022-12-12T02:59:01.136Z,2.69
2022-12-12T03:00:11.056Z,2.70
2022-12-12T03:01:29.354Z,2.69
2022-12-12T03:02:47.990Z,2.70
2022-12-12T03:03:54.941Z,2.70
2022-12-12T03:05:04.642Z,2.69
2022-12-12T03:06:39.390Z,2.69
2022-12-12T03:07:59.155Z,2.71
2022-12-12T03:09:11.825Z,2.68
2022-12-12T03:10:30.395Z,2.65
2022-12-12T03:11:46.195Z,2.66
2022-12-12T03:13:08.038Z,2.64
2022-12-12T03:14:14.940Z,2.63
2022-12-12T03:15:46.061Z,2.61
2022-12-12T03:16:53.014Z,2.59
2022-12-12T03:18:02.821Z,2.60
2022-12-12T03:19:12.346Z,2.60
2022-12-12T03:20:25.180Z,2.59
2022-12-12T03:21:47.163Z,2.58
2022-12-12T03:23:03.091Z,2.58
2022-12-12T03:24:10.028Z,2.58
2022-12-12T03:25:19.718Z,2.57
2022-12-12T03:26:32.527Z,2.56
2022-12-12T03:27:48.452Z,2.54
2022-12-12T03:28:55.374Z,2.53
2022-12-12T03:30:05.439Z,2.56
2022-12-12T03:31:15.370Z,2.56
2022-12-12T03:32:25.341Z,2.56
2022-12-12T03:33:32.222Z,2.56
2022-12-12T03:34:45.218Z,2.54
2022-12-12T03:35:55.297Z,2.54
2022-12-12T03:37:02.489Z,2.54
2022-12-12T03:38:09.578Z,2.51
2022-12-12T03:39:16.531Z,2.49
2022-12-12T03:40:31.486Z,2.50
2022-12-12T03:41:38.579Z,2.50
2022-12-12T03:42:51.400Z,2.50
2022-12-12T03:44:01.226Z,2.49
2022-12-12T03:45:16.947Z,2.49
2022-12-12T03:46:26.360Z,2.49
2022-12-12T03:47:33.476Z,2.48
2022-12-12T03:48:49.493Z,2.46
2022-12-12T03:50:02.031Z,2.44
2022-12-12T03:51:11.863Z,2.43
2022-12-12T03:52:21.420Z,2.43
2022-12-12T03:53:37.420Z,2.42
2022-12-12T03:54:46.672Z,2.43
2022-12-12T03:55:59.507Z,2.41
2022-12-12T03:57:08.478Z,2.40
2022-12-12T03:58:27.407Z,2.41
2022-12-12T03:59:37.015Z,2.17
2022-12-12T04:00:42.962Z,2.40
2022-12-12T04:02:09.489Z,2.40
2022-12-12T04:03:22.052Z,2.38
2022-12-12T04:04:31.920Z,2.35
2022-12-12T04:05:48.107Z,2.38
2022-12-12T04:07:01.219Z,2.37
2022-12-12T04:08:10.923Z,2.35
2022-12-12T04:09:26.205Z,2.36
2022-12-12T04:10:33.235Z,2.34
2022-12-12T04:13:34.619Z,2.30
2022-12-12T04:14:53.549Z,2.31
2022-12-12T04:16:18.379Z,2.33
2022-12-12T04:17:25.522Z,2.33
2022-12-12T04:19:02.640Z,2.33
2022-12-12T04:20:12.446Z,2.32
2022-12-12T04:21:49.457Z,2.31
2022-12-12T04:22:59.423Z,2.30
2022-12-12T04:24:09.427Z,2.28
2022-12-12T04:25:16.340Z,2.29
2022-12-12T04:26:57.983Z,2.29
2022-12-12T04:28:05.091Z,2.27
2022-12-12T04:29:21.050Z,1.06
2022-12-12T04:30:25.231Z,2.26
2022-12-12T04:31:31.900Z,2.25
2022-12-12T04:32:47.611Z,2.03
2022-12-12T04:33:54.184Z,2.25
2022-12-12T04:35:21.817Z,2.25
2022-12-12T04:36:28.986Z,2.27
2022-12-12T04:37:36.011Z,2.27
2022-12-12T04:38:42.575Z,2.25
2022-12-12T04:39:49.771Z,2.22
2022-12-12T04:40:58.597Z,-1.47
2022-12-12T04:42:04.207Z,2.19
2022-12-12T04:43:11.141Z,2.14
2022-12-12T04:44:19.641Z,2.05
2022-12-12T04:45:26.834Z,2.07
2022-12-12T04:46:34.104Z,2.03
2022-12-12T04:47:40.505Z,2.03
2022-12-12T04:48:59.249Z,2.06
2022-12-12T04:50:04.977Z,2.03
2022-12-12T04:51:11.912Z,2.03
2022-12-12T04:52:21.758Z,1.98
2022-12-12T04:53:28.818Z,1.93
2022-12-12T04:54:53.881Z,1.93
2022-12-12T04:56:02.194Z,1.86
2022-12-12T04:57:09.709Z,1.86
2022-12-12T04:58:14.693Z,1.88
2022-12-12T04:59:19.275Z,1.89
2022-12-12T05:00:25.021Z,1.86
2022-12-12T05:01:53.484Z,1.86
2022-12-12T05:03:06.048Z,1.87
2022-12-12T05:04:15.600Z,1.84
2022-12-12T05:05:28.485Z,1.86
2022-12-12T05:06:41.133Z,1.82
2022-12-12T05:07:53.853Z,1.83
2022-12-12T05:08:59.614Z,1.79
2022-12-12T05:10:05.340Z,1.81
2022-12-12T05:11:09.923Z,-1.88
2022-12-12T05:12:16.522Z,-1.88
2022-12-12T05:13:37.842Z,1.78
2022-12-12T05:14:57.507Z,1.80
2022-12-12T05:19:24.816Z,1.79
2022-12-12T05:20:29.434Z,1.78
2022-12-12T05:21:33.529Z,1.78
2022-12-12T05:22:38.266Z,1.80
2022-12-12T05:23:45.013Z,1.80
2022-12-12T05:24:49.396Z,1.79
2022-12-12T05:25:59.671Z,1.79
2022-12-12T05:27:25.290Z,1.83
2022-12-12T05:30:10.014Z,1.86
2022-12-12T05:47:02.425Z,1.48
2022-12-12T05:48:06.599Z,1.42
2022-12-12T05:49:10.439Z,1.43
2022-12-12T05:50:15.944Z,1.46
2022-12-12T05:51:20.885Z,1.49
2022-12-12T05:52:27.482Z,1.50
2022-12-12T05:53:31.439Z,1.53
2022-12-12T05:54:37.319Z,1.54
2022-12-12T05:55:41.528Z,1.58
2022-12-12T05:56:45.462Z,1.58
2022-12-12T05:57:49.310Z,1.58
2022-12-12T05:58:53.204Z,1.61
2022-12-12T05:59:57.056Z,1.62
2022-12-12T06:01:04.146Z,1.62
2022-12-12T06:02:08.060Z,1.62
2022-12-12T06:03:12.030Z,1.60
2022-12-12T06:04:16.109Z,1.62
2022-12-12T06:05:20.111Z,1.66
2022-12-12T06:06:26.487Z,1.65
2022-12-12T06:07:30.433Z,1.66
2022-12-12T06:08:34.400Z,1.63
2022-12-12T06:09:38.406Z,1.64
2022-12-12T06:10:42.616Z,1.65
2022-12-12T06:11:46.465Z,1.64
2022-12-12T06:12:52.947Z,1.64
2022-12-12T06:13:56.145Z,1.60
2022-12-12T06:15:00.112Z,1.60
2022-12-12T06:16:09.524Z,1.58
2022-12-12T06:17:14.893Z,1.59
2022-12-12T06:18:18.863Z,1.59
2022-12-12T06:19:24.601Z,1.59
2022-12-12T06:20:28.552Z,1.59
2022-12-12T06:21:33.665Z,1.59
2022-12-12T06:22:40.656Z,1.58
2022-12-12T06:23:46.505Z,1.58
2022-12-12T06:24:50.434Z,1.55
2022-12-12T06:25:56.893Z,0.80
2022-12-12T06:27:01.042Z,1.50
2022-12-12T06:28:07.787Z,1.47
2022-12-12T06:29:11.755Z,1.47
2022-12-12T06:30:18.599Z,1.47
2022-12-12T06:31:22.719Z,1.48
2022-12-12T06:32:26.735Z,1.44
2022-12-12T06:33:30.660Z,1.42
2022-12-12T06:34:34.634Z,1.42
2022-12-12T06:35:38.838Z,1.42
2022-12-12T06:36:42.894Z,1.37
2022-12-12T06:37:46.960Z,1.36
2022-12-12T06:38:53.216Z,1.35
2022-12-12T06:39:57.174Z,1.27
2022-12-12T06:41:02.829Z,1.32
2022-12-12T06:42:06.859Z,1.30
2022-12-12T06:43:12.655Z,1.30
2022-12-12T06:44:16.690Z,1.28
2022-12-12T06:45:20.566Z,1.26
2022-12-12T06:46:28.310Z,1.27
2022-12-12T06:47:32.255Z,1.28
2022-12-12T06:48:37.618Z,1.27
2022-12-12T06:49:44.337Z,1.27
2022-12-12T06:50:50.262Z,1.27
2022-12-12T06:51:53.838Z,1.26
2022-12-12T06:52:59.309Z,1.29
2022-12-12T06:54:03.304Z,1.29
2022-12-12T06:55:07.386Z,1.29
2022-12-12T06:56:14.707Z,1.30
2022-12-12T06:57:20.195Z,1.30
2022-12-12T06:58:25.725Z,1.29
2022-12-12T06:59:29.684Z,1.29
2022-12-12T07:00:35.140Z,1.28
2022-12-12T07:01:39.708Z,1.27
2022-12-12T07:02:45.333Z,1.29
2022-12-12T07:03:51.927Z,1.27
2022-12-12T07:04:56.114Z,1.26
2022-12-12T07:06:01.122Z,1.26
2022-12-12T07:07:06.683Z,1.24
2022-12-12T07:08:10.651Z,1.26
2022-12-12T07:09:14.664Z,1.26
2022-12-12T07:10:21.409Z,1.30
2022-12-12T07:11:26.677Z,1.29
2022-12-12T07:12:30.627Z,1.28
2022-12-12T07:13:36.125Z,1.26
2022-12-12T07:14:41.760Z,1.30
2022-12-12T07:15:47.148Z,1.31
2022-12-12T07:16:52.759Z,1.32
2022-12-12T07:17:56.690Z,1.33
2022-12-12T07:19:00.626Z,1.34
2022-12-12T07:20:05.590Z,1.34
2022-12-12T07:21:12.137Z,1.35
2022-12-12T07:22:16.063Z,1.34
2022-12-12T07:23:21.681Z,1.34
2022-12-12T07:24:26.776Z,1.35
2022-12-12T07:25:41.273Z,1.36
2022-12-12T07:26:37.961Z,1.38
2022-12-12T07:27:52.465Z,1.39
2022-12-12T07:28:57.887Z,1.38
2022-12-12T07:30:01.947Z,1.40
2022-12-12T07:31:11.826Z,1.40
2022-12-12T07:32:17.377Z,1.40
2022-12-12T07:33:21.482Z,1.38
2022-12-12T07:34:29.729Z,1.42
2022-12-12T07:35:35.819Z,1.42
2022-12-12T07:36:43.963Z,1.44
2022-12-12T07:37:50.970Z,1.44
2022-12-12T07:38:54.967Z,1.45
2022-12-12T07:39:58.911Z,1.48
2022-12-12T07:41:07.943Z,1.48
2022-12-12T07:42:11.797Z,1.46
2022-12-12T07:43:18.361Z,1.50
2022-12-12T07:44:23.869Z,1.49
2022-12-12T07:45:29.890Z,1.52
2022-12-12T07:46:34.360Z,1.56
2022-12-12T07:47:38.397Z,1.59
2022-12-12T07:48:45.938Z,1.63
2022-12-12T07:49:51.565Z,1.62
2022-12-12T07:50:57.272Z,1.63
2022-12-12T07:52:02.878Z,1.63
2022-12-12T07:53:07.138Z,1.67
2022-12-12T07:54:12.701Z,1.67
2022-12-12T07:55:21.722Z,1.67
2022-12-12T07:56:28.283Z,1.70
2022-12-12T08:00:38.368Z,1.69
2022-12-12T08:01:39.798Z,1.71
2022-12-12T08:02:47.573Z,1.73
2022-12-12T08:03:59.254Z,1.73
2022-12-12T08:05:09.893Z,1.74
2022-12-12T08:06:20.662Z,1.79
2022-12-12T08:07:33.705Z,1.78
2022-12-12T08:08:39.496Z,1.81
2022-12-12T08:09:43.740Z,1.84
2022-12-12T08:10:57.595Z,1.90
2022-12-12T08:11:59.857Z,1.91
2022-12-12T08:13:04.314Z,1.91
2022-12-12T08:14:12.897Z,1.99
2022-12-12T08:15:19.259Z,2.02
2022-12-12T08:16:30.206Z,2.04
2022-12-12T08:17:39.981Z,2.04
2022-12-12T08:18:45.956Z,2.06
2022-12-12T08:19:50.152Z,2.06
2022-12-12T08:20:57.217Z,2.14
2022-12-12T08:22:01.427Z,2.16
2022-12-12T08:23:08.539Z,2.20
2022-12-12T08:24:16.120Z,2.23
2022-12-12T08:25:20.222Z,2.25
2022-12-12T08:26:26.518Z,2.29
2022-12-12T08:27:30.613Z,2.31
2022-12-12T08:28:34.967Z,1.86
2022-12-12T08:29:40.768Z,2.39
2022-12-12T08:30:48.270Z,2.42
2022-12-12T08:31:52.519Z,2.46
2022-12-12T08:33:03.524Z,2.46
2022-12-12T08:34:05.843Z,1.96
2022-12-12T08:35:12.104Z,2.47
2022-12-12T08:36:20.127Z,2.47
2022-12-12T08:37:27.639Z,2.44
2022-12-12T08:38:33.423Z,2.42
2022-12-12T08:39:37.666Z,2.42
2022-12-12T08:40:42.182Z,2.40
2022-12-12T08:41:50.213Z,2.40
2022-12-12T08:42:54.195Z,2.40
2022-12-12T08:43:58.661Z,2.42
2022-12-12T08:45:02.776Z,2.40
2022-12-12T08:46:17.326Z,2.37
2022-12-12T08:47:20.038Z,2.41
2022-12-12T08:48:24.118Z,2.39
2022-12-12T08:49:28.345Z,2.37
2022-12-12T08:50:32.674Z,2.37
2022-12-12T08:51:39.263Z,2.37
2022-12-12T08:52:47.640Z,2.39
2022-12-12T08:53:53.343Z,2.41
2022-12-12T08:54:57.639Z,2.43
2022-12-12T08:56:06.223Z,2.52
2022-12-12T08:57:10.428Z,2.57
2022-12-12T08:58:16.664Z,2.57
2022-12-12T08:59:21.025Z,2.68
2022-12-12T09:00:25.247Z,2.71
2022-12-12T09:01:29.572Z,2.75
2022-12-12T09:02:34.013Z,2.75
2022-12-12T09:03:38.301Z,2.79
2022-12-12T09:04:42.765Z,2.78
2022-12-12T09:05:47.750Z,2.72
2022-12-12T09:06:52.691Z,2.72
2022-12-12T09:08:38.293Z,2.69
2022-12-12T09:09:43.957Z,2.66
2022-12-12T09:10:52.367Z,2.66
2022-12-12T09:11:56.512Z,2.61
2022-12-12T09:13:00.864Z,2.55
2022-12-12T09:14:06.232Z,2.55
2022-12-12T09:15:11.039Z,2.60
2022-12-12T09:16:22.239Z,2.62
2022-12-12T09:17:33.575Z,2.59
2022-12-12T09:18:44.740Z,2.56
2022-12-12T09:19:46.151Z,2.59
2022-12-12T09:20:52.328Z,2.61
2022-12-12T09:21:58.089Z,2.67
2022-12-12T09:23:05.365Z,2.72
2022-12-12T09:25:51.761Z,2.81
2022-12-12T09:27:01.787Z,2.84
2022-12-12T09:28:07.037Z,2.86
2022-12-12T09:29:12.922Z,2.90
2022-12-12T09:30:18.994Z,2.93
2022-12-12T09:31:24.941Z,2.92
2022-12-12T09:32:33.417Z,2.80
2022-12-12T09:33:41.726Z,2.80
2022-12-12T09:34:45.931Z,2.84
2022-12-12T09:36:03.698Z,2.80
2022-12-12T09:37:04.964Z,2.83
2022-12-12T09:38:14.254Z,2.84
2022-12-12T09:39:19.694Z,2.84
2022-12-12T09:40:51.563Z,2.78
2022-12-12T09:41:52.556Z,2.75
2022-12-12T09:42:57.494Z,2.75
2022-12-12T09:44:04.730Z,2.71
2022-12-12T09:45:09.707Z,2.64
2022-12-12T09:46:40.985Z,2.63
2022-12-12T09:47:48.682Z,2.57
2022-12-12T09:48:56.229Z,2.53
2022-12-12T09:50:03.196Z,2.48
2022-12-12T09:51:12.795Z,2.39
2022-12-12T09:52:19.944Z,2.36
2022-12-12T09:53:25.746Z,2.34
2022-12-12T09:54:33.269Z,2.37
2022-12-12T09:56:03.845Z,2.30
2022-12-12T09:57:31.854Z,2.29
2022-12-12T09:58:57.352Z,2.24
2022-12-12T10:00:10.349Z,2.17
2022-12-12T10:01:25.323Z,2.17
2022-12-12T10:02:54.792Z,2.14
2022-12-12T10:04:17.330Z,2.02
2022-12-12T10:05:33.454Z,1.99
2022-12-12T14:13:43.299Z,-0.05
2022-12-12T14:36:20.667Z,0.12
2022-12-12T14:37:51.978Z,0.18
2022-12-12T14:56:19.080Z,0.06
2022-12-12T14:58:23.197Z,0.07
2022-12-12T15:38:13.746Z,0.20
2022-12-12T15:39:20.591Z,0.23
2022-12-12T15:40:27.891Z,0.25
2022-12-12T15:41:33.712Z,0.27
2022-12-12T15:42:44.109Z,0.29
2022-12-12T15:43:50.140Z,0.29
2022-12-12T15:44:57.105Z,0.28
2022-12-12T15:46:06.789Z,0.29
2022-12-12T15:47:13.983Z,0.29
2022-12-12T15:48:23.530Z,0.29
2022-12-12T15:49:47.332Z,0.29
2022-12-12T15:54:03.291Z,0.39
2022-12-12T15:55:11.803Z,0.36
2022-12-12T15:56:22.594Z,0.39
2022-12-12T15:57:38.533Z,0.41
2022-12-12T15:59:42.271Z,0.41
2022-12-12T16:00:05.394Z,0.41
2022-12-12T16:01:23.667Z,0.39
2022-12-12T16:02:36.741Z,0.39
2022-12-12T16:03:41.948Z,0.35
2022-12-12T16:04:48.830Z,0.36
2022-12-12T16:06:01.558Z,0.34
2022-12-12T16:08:36.623Z,0.32
2022-12-12T16:09:45.348Z,0.31
2022-12-12T16:10:54.230Z,0.31
2022-12-12T16:12:01.201Z,0.29
2022-12-12T16:30:55.731Z,0.02
2022-12-12T16:34:39.117Z,0.07
2022-12-12T16:35:45.770Z,0.07
2022-12-12T16:36:51.065Z,0.09
2022-12-12T16:37:55.037Z,0.10
2022-12-12T16:38:58.974Z,0.06
2022-12-12T16:40:05.726Z,0.08
2022-12-12T16:41:12.609Z,0.08
2022-12-12T16:42:19.064Z,0.09
2022-12-12T16:43:29.301Z,0.08
2022-12-12T16:44:34.875Z,0.09
2022-12-12T16:45:41.168Z,0.06
2022-12-12T16:46:48.306Z,0.05
2022-12-12T16:48:11.072Z,0.05
2022-12-12T16:49:02.809Z,0.07
2022-12-12T16:50:07.379Z,0.09
2022-12-12T16:51:15.537Z,0.09
2022-12-12T16:52:26.172Z,0.09
2022-12-12T16:53:31.631Z,0.09
2022-12-12T16:54:35.452Z,0.09
2022-12-12T16:55:44.011Z,0.10
2022-12-12T16:56:49.566Z,0.10
2022-12-12T16:58:04.835Z,0.14
2022-12-12T17:16:07.259Z,-0.02
